createdAt,value
2023-01-06T00:00:42.537Z,11.36
2023-01-06T00:03:09.911Z,11.28
2023-01-06T00:05:36.461Z,11.36
2023-01-06T00:08:03.298Z,11.26
2023-01-06T00:10:30.094Z,11.23
2023-01-06T00:12:56.689Z,11.20
2023-01-06T00:15:23.286Z,11.21
2023-01-06T00:17:49.860Z,11.23
2023-01-06T00:20:16.509Z,11.13
2023-01-06T00:22:43.344Z,11.09
2023-01-06T00:25:11.494Z,11.02
2023-01-06T00:27:39.245Z,11.22
2023-01-06T00:30:07.493Z,11.01
2023-01-06T00:32:34.563Z,11.10
2023-01-06T00:35:01.268Z,11.14
2023-01-06T00:37:27.913Z,11.00
2023-01-06T00:39:54.527Z,11.17
2023-01-06T00:42:22.498Z,11.08
2023-01-06T00:44:49.695Z,11.17
2023-01-06T00:47:17.119Z,11.08
2023-01-06T00:49:43.817Z,11.14
2023-01-06T00:52:10.946Z,11.21
2023-01-06T00:54:37.687Z,11.04
2023-01-06T00:57:06.832Z,10.91
2023-01-06T00:59:34.088Z,11.07
2023-01-06T01:02:02.780Z,11.10
2023-01-06T01:04:30.625Z,11.03
2023-01-06T01:06:57.328Z,11.14
2023-01-06T01:09:28.141Z,11.10
2023-01-06T01:12:09.905Z,11.06
2023-01-06T01:14:42.244Z,11.18
2023-01-06T01:17:10.455Z,11.10
2023-01-06T01:19:38.128Z,11.11
2023-01-06T01:22:05.176Z,11.26
2023-01-06T01:24:31.860Z,11.19
2023-01-06T01:26:59.399Z,11.05
2023-01-06T01:29:26.299Z,11.09
2023-01-06T01:31:52.944Z,11.05
2023-01-06T01:34:19.878Z,11.12
2023-01-06T01:36:48.071Z,11.14
2023-01-06T01:39:16.661Z,11.24
2023-01-06T01:41:43.951Z,11.14
2023-01-06T01:44:48.230Z,11.35
2023-01-06T01:47:20.910Z,11.36
2023-01-06T01:49:52.216Z,11.22
2023-01-06T01:52:20.133Z,11.00
2023-01-06T01:54:48.887Z,11.17
2023-01-06T01:57:45.455Z,11.07
2023-01-06T02:00:12.478Z,11.00
2023-01-06T02:02:42.911Z,10.92
2023-01-06T02:05:14.015Z,11.10
2023-01-06T02:07:41.085Z,11.12
2023-01-06T02:10:19.945Z,11.28
2023-01-06T02:12:49.311Z,11.35
2023-01-06T02:15:16.172Z,11.26
2023-01-06T02:17:58.019Z,11.09
2023-01-06T02:20:43.389Z,11.24
2023-01-06T02:23:24.196Z,11.14
2023-01-06T02:26:06.619Z,11.16
2023-01-06T02:28:42.195Z,11.14
2023-01-06T02:31:24.098Z,11.25
2023-01-06T02:33:56.366Z,11.33
2023-01-06T02:36:45.017Z,11.35
2023-01-06T02:39:25.709Z,11.27
2023-01-06T02:42:04.125Z,11.33
2023-01-06T02:44:38.485Z,11.20
2023-01-06T02:47:15.259Z,11.32
2023-01-06T02:50:02.679Z,11.20
2023-01-06T02:52:41.564Z,11.31
2023-01-06T02:55:21.784Z,11.33
2023-01-06T02:57:59.514Z,11.37
2023-01-06T03:00:46.348Z,11.28
2023-01-06T03:03:20.432Z,11.35
2023-01-06T03:05:52.047Z,11.37
2023-01-06T03:08:23.464Z,11.25
2023-01-06T03:10:51.983Z,11.38
2023-01-06T03:13:28.608Z,11.14
2023-01-06T03:15:57.864Z,11.18
2023-01-06T03:18:24.730Z,11.17
2023-01-06T03:20:54.717Z,11.23
2023-01-06T03:23:22.266Z,11.30
2023-01-06T03:25:49.457Z,11.16
2023-01-06T03:28:16.131Z,11.39
2023-01-06T03:31:05.926Z,11.31
2023-01-06T03:33:42.359Z,11.11
2023-01-06T03:36:36.477Z,11.20
2023-01-06T03:39:19.561Z,11.31
2023-01-06T03:42:31.463Z,11.16
2023-01-06T03:45:07.549Z,11.23
2023-01-06T03:47:49.700Z,11.23
2023-01-06T03:51:03.940Z,11.27
2023-01-06T03:53:59.284Z,11.25
2023-01-06T03:56:31.882Z,11.20
2023-01-06T03:59:05.634Z,11.28
2023-01-06T04:01:33.253Z,11.25
2023-01-06T04:04:01.664Z,11.40
2023-01-06T04:06:29.458Z,11.18
2023-01-06T04:08:56.075Z,11.16
2023-01-06T04:11:41.976Z,11.14
2023-01-06T04:14:09.565Z,11.29
2023-01-06T04:16:37.179Z,11.17
2023-01-06T04:19:03.838Z,11.17
2023-01-06T04:21:30.499Z,11.02
2023-01-06T04:23:57.299Z,11.05
2023-01-06T04:26:23.966Z,11.05
2023-01-06T04:28:51.012Z,11.17
2023-01-06T04:31:18.554Z,11.23
2023-01-06T04:33:46.463Z,11.17
2023-01-06T04:36:15.401Z,11.07
2023-01-06T04:38:47.034Z,11.23
2023-01-06T04:41:13.676Z,11.30
2023-01-06T04:43:40.231Z,11.19
2023-01-06T04:46:07.114Z,11.11
2023-01-06T04:48:33.755Z,11.18
2023-01-06T04:51:04.887Z,11.17
2023-01-06T04:53:40.583Z,11.22
2023-01-06T04:56:10.137Z,11.27
2023-01-06T04:58:36.790Z,11.15
2023-01-06T05:01:09.168Z,11.34
2023-01-06T05:03:36.275Z,11.39
2023-01-06T05:06:11.589Z,11.10
2023-01-06T05:08:40.006Z,11.13
2023-01-06T05:11:12.116Z,11.24
2023-01-06T05:13:39.462Z,11.26
2023-01-06T05:16:08.112Z,11.36
2023-01-06T05:18:35.567Z,11.34
2023-01-06T05:21:02.581Z,11.13
2023-01-06T05:23:29.366Z,11.25
2023-01-06T05:25:55.982Z,11.23
2023-01-06T05:28:22.765Z,11.25
2023-01-06T05:30:49.595Z,11.12
2023-01-06T05:33:16.455Z,11.14
2023-01-06T05:35:43.029Z,11.28
2023-01-06T05:38:09.608Z,11.27
2023-01-06T05:40:36.331Z,11.14
2023-01-06T05:43:03.003Z,11.12
2023-01-06T05:45:29.943Z,11.26
2023-01-06T05:47:57.879Z,11.41
2023-01-06T05:50:24.486Z,11.13
2023-01-06T05:52:51.044Z,11.25
2023-01-06T05:55:17.737Z,11.20
2023-01-06T05:57:44.292Z,11.33
2023-01-06T06:00:11.631Z,11.29
2023-01-06T06:02:41.061Z,11.28
2023-01-06T06:05:09.303Z,11.49
2023-01-06T06:07:37.019Z,11.33
2023-01-06T06:10:04.789Z,11.23
2023-01-06T06:12:31.578Z,11.22
2023-01-06T06:14:58.179Z,11.23
2023-01-06T06:17:25.293Z,11.27
2023-01-06T06:19:51.911Z,11.24
2023-01-06T06:22:18.811Z,11.17
2023-01-06T06:24:45.345Z,11.20
2023-01-06T06:27:11.960Z,11.23
2023-01-06T06:29:38.534Z,11.24
2023-01-06T06:32:05.220Z,11.24
2023-01-06T06:34:32.000Z,11.21
2023-01-06T06:36:58.589Z,11.17
2023-01-06T06:39:25.188Z,11.10
2023-01-06T06:41:51.868Z,10.81
2023-01-06T06:44:18.373Z,11.11
2023-01-06T06:46:44.933Z,11.14
2023-01-06T06:49:11.601Z,11.23
2023-01-06T06:51:38.216Z,11.17
2023-01-06T06:54:05.021Z,11.23
2023-01-06T06:56:31.786Z,11.20
2023-01-06T06:58:58.428Z,11.33
2023-01-06T07:01:25.236Z,11.40
2023-01-06T07:03:51.851Z,11.22
2023-01-06T07:06:22.840Z,11.10
2023-01-06T07:08:50.068Z,11.10
2023-01-06T07:11:17.435Z,11.15
2023-01-06T07:13:44.186Z,11.10
2023-01-06T07:16:11.411Z,11.20
2023-01-06T07:18:38.976Z,11.26
2023-01-06T07:21:06.375Z,11.13
2023-01-06T07:23:33.365Z,11.25
2023-01-06T07:26:01.633Z,11.18
2023-01-06T07:28:30.483Z,11.31
2023-01-06T07:30:57.145Z,11.35
2023-01-06T07:33:24.111Z,11.31
2023-01-06T07:35:55.092Z,11.31
2023-01-06T07:38:21.810Z,11.46
2023-01-06T07:40:48.434Z,11.31
2023-01-06T07:43:15.067Z,11.25
2023-01-06T07:45:41.545Z,11.17
2023-01-06T07:48:09.644Z,11.37
2023-01-06T07:50:36.168Z,11.24
2023-01-06T07:53:04.024Z,11.29
2023-01-06T07:55:30.694Z,11.17
2023-01-06T07:57:58.952Z,11.17
2023-01-06T08:00:26.006Z,11.39
2023-01-06T08:02:52.859Z,11.34
2023-01-06T08:05:19.430Z,11.35
2023-01-06T08:07:46.105Z,11.38
2023-01-06T08:10:13.015Z,11.42
2023-01-06T08:12:39.666Z,11.17
2023-01-06T08:15:06.810Z,11.31
2023-01-06T08:17:33.401Z,11.31
2023-01-06T08:20:00.099Z,11.40
2023-01-06T08:22:26.690Z,11.37
2023-01-06T08:24:53.500Z,11.26
2023-01-06T08:27:20.658Z,11.24
2023-01-06T08:29:47.918Z,11.26
2023-01-06T08:32:14.577Z,11.41
2023-01-06T08:34:41.249Z,11.34
2023-01-06T08:37:07.790Z,11.35
2023-01-06T08:39:34.371Z,11.38
2023-01-06T08:42:00.874Z,11.41
2023-01-06T08:44:28.086Z,11.50
2023-01-06T08:46:54.627Z,11.49
2023-01-06T08:49:21.303Z,11.46
2023-01-06T08:51:47.942Z,11.30
2023-01-06T08:54:14.612Z,11.34
2023-01-06T08:56:43.515Z,11.34
2023-01-06T08:59:13.720Z,11.63
2023-01-06T09:01:40.897Z,11.29
2023-01-06T09:04:08.812Z,11.23
2023-01-06T09:06:37.268Z,11.31
2023-01-06T09:09:06.843Z,11.10
2023-01-06T09:11:33.433Z,11.22
2023-01-06T09:14:00.126Z,11.39
2023-01-06T09:16:26.849Z,11.25
2023-01-06T09:18:53.412Z,11.29
2023-01-06T09:21:22.512Z,11.44
2023-01-06T09:23:49.608Z,11.43
2023-01-06T09:26:18.220Z,11.33
2023-01-06T09:28:45.061Z,11.34
2023-01-06T09:31:11.872Z,11.28
2023-01-06T09:33:40.148Z,11.37
2023-01-06T09:36:07.015Z,11.35
2023-01-06T09:38:33.643Z,11.22
2023-01-06T09:41:30.953Z,11.23
2023-01-06T09:44:11.075Z,11.34
2023-01-06T09:46:40.851Z,11.34
2023-01-06T09:49:24.546Z,11.36
2023-01-06T09:51:56.533Z,11.25
2023-01-06T09:54:27.784Z,11.44
2023-01-06T09:57:02.715Z,11.44
2023-01-06T10:00:00.301Z,10.99
2023-01-06T10:02:36.061Z,10.92
2023-01-06T10:05:04.757Z,11.11
2023-01-06T10:07:46.500Z,11.12
2023-01-06T10:10:16.176Z,10.90
2023-01-06T10:12:54.158Z,11.14
2023-01-06T10:15:41.587Z,11.20
2023-01-06T10:18:32.823Z,11.18
2023-01-06T10:21:13.079Z,11.32
2023-01-06T10:23:39.701Z,11.45
2023-01-06T10:26:30.372Z,11.14
2023-01-06T10:29:09.968Z,11.29
2023-01-06T10:31:39.424Z,11.40
2023-01-06T10:34:19.999Z,11.17
2023-01-06T10:36:52.783Z,11.45
2023-01-06T10:39:26.228Z,11.50
2023-01-06T10:41:53.501Z,11.43
2023-01-06T10:44:20.506Z,11.38
2023-01-06T10:46:49.482Z,11.41
2023-01-06T10:49:18.862Z,11.40
2023-01-06T10:52:03.329Z,11.22
2023-01-06T10:54:34.056Z,11.34
2023-01-06T10:57:04.414Z,11.60
2023-01-06T10:59:31.206Z,11.61
2023-01-06T11:01:58.995Z,11.52
2023-01-06T11:04:27.797Z,11.65
2023-01-06T11:06:57.911Z,11.58
2023-01-06T11:09:36.569Z,11.77
2023-01-06T11:12:11.980Z,11.55
2023-01-06T11:14:39.916Z,11.78
2023-01-06T11:17:14.533Z,11.75
2023-01-06T11:19:43.576Z,11.80
2023-01-06T11:22:35.031Z,12.04
2023-01-06T11:25:02.636Z,11.78
2023-01-06T11:27:29.395Z,11.96
2023-01-06T11:29:56.356Z,11.96
2023-01-06T11:32:29.349Z,11.93
2023-01-06T11:35:03.702Z,11.99
2023-01-06T11:37:35.824Z,11.91
2023-01-06T11:40:16.320Z,11.90
2023-01-06T11:42:43.440Z,11.86
2023-01-06T11:45:29.148Z,12.01
2023-01-06T11:47:56.417Z,11.92
2023-01-06T11:50:23.579Z,12.11
2023-01-06T11:53:18.026Z,11.95
2023-01-06T11:56:18.532Z,12.12
2023-01-06T11:59:04.495Z,12.30
2023-01-06T12:01:48.061Z,12.21
2023-01-06T12:04:34.920Z,12.13
2023-01-06T12:07:24.067Z,12.27
2023-01-06T12:09:52.974Z,12.53
2023-01-06T12:12:27.287Z,12.27
2023-01-06T12:14:54.809Z,12.62
2023-01-06T12:17:27.499Z,12.62
2023-01-06T12:20:02.140Z,12.84
2023-01-06T12:22:28.745Z,13.03
2023-01-06T12:24:57.419Z,13.02
2023-01-06T12:27:39.383Z,12.91
2023-01-06T12:30:14.064Z,13.32
2023-01-06T12:32:45.138Z,13.59
2023-01-06T12:35:19.014Z,13.50
2023-01-06T12:37:55.182Z,13.26
2023-01-06T12:40:39.617Z,12.88
2023-01-06T12:43:37.490Z,12.84
2023-01-06T12:46:29.290Z,12.80
2023-01-06T12:49:21.772Z,13.11
2023-01-06T12:51:57.750Z,13.40
2023-01-06T12:54:30.235Z,13.24
2023-01-06T12:57:12.745Z,13.00
2023-01-06T13:00:01.550Z,13.06
2023-01-06T13:02:31.203Z,12.94
2023-01-06T13:04:57.657Z,13.12
2023-01-06T13:07:31.335Z,13.13
2023-01-06T13:10:19.161Z,12.74
2023-01-06T13:12:55.930Z,13.02
2023-01-06T13:15:29.122Z,12.85
2023-01-06T13:18:15.475Z,13.03
2023-01-06T13:20:49.852Z,12.88
2023-01-06T13:23:38.832Z,12.84
2023-01-06T13:26:24.101Z,12.93
2023-01-06T13:29:09.894Z,12.80
2023-01-06T13:32:19.135Z,12.95
2023-01-06T13:35:13.566Z,13.22
2023-01-06T13:37:42.318Z,13.28
2023-01-06T13:40:16.447Z,13.34
2023-01-06T13:43:23.520Z,13.10
2023-01-06T13:45:58.281Z,13.05
2023-01-06T13:48:29.676Z,13.08
2023-01-06T13:50:59.536Z,12.87
2023-01-06T13:53:27.330Z,13.12
2023-01-06T13:56:12.041Z,12.74
2023-01-06T13:58:43.296Z,12.90
2023-01-06T14:01:30.512Z,12.91
2023-01-06T14:04:32.469Z,12.89
2023-01-06T14:07:00.440Z,12.89
2023-01-06T14:09:28.072Z,13.03
2023-01-06T14:12:08.400Z,12.73
2023-01-06T14:14:38.928Z,12.65
2023-01-06T14:17:05.872Z,12.70
2023-01-06T14:19:40.074Z,12.52
2023-01-06T14:22:21.304Z,12.33
2023-01-06T14:24:52.511Z,12.48
2023-01-06T14:27:46.868Z,12.69
2023-01-06T14:30:30.548Z,12.80
2023-01-06T14:33:07.129Z,12.91
2023-01-06T14:35:44.672Z,13.03
2023-01-06T14:38:24.307Z,12.76
2023-01-06T14:41:04.188Z,12.59
2023-01-06T14:43:37.792Z,12.80
2023-01-06T14:46:09.032Z,12.39
2023-01-06T14:48:42.324Z,12.54
2023-01-06T14:51:15.512Z,12.72
2023-01-06T14:53:47.115Z,12.73
2023-01-06T14:56:22.153Z,12.56
2023-01-06T14:58:48.809Z,12.61
2023-01-06T15:01:25.081Z,12.57
2023-01-06T15:04:01.357Z,12.26
2023-01-06T15:06:29.726Z,12.47
2023-01-06T15:09:11.625Z,12.52
2023-01-06T15:11:41.863Z,12.32
2023-01-06T15:14:30.096Z,12.31
2023-01-06T15:17:01.169Z,12.08
2023-01-06T15:19:28.324Z,12.46
2023-01-06T15:21:55.156Z,12.48
2023-01-06T15:24:28.611Z,12.26
2023-01-06T15:27:02.513Z,12.22
2023-01-06T15:29:29.192Z,12.12
2023-01-06T15:31:56.840Z,12.03
2023-01-06T15:34:32.678Z,11.97
2023-01-06T15:37:01.950Z,12.03
2023-01-06T15:39:30.973Z,11.97
2023-01-06T15:41:59.299Z,12.01
2023-01-06T15:44:37.846Z,12.08
2023-01-06T15:47:10.610Z,12.03
2023-01-06T15:49:42.438Z,11.93
2023-01-06T15:52:23.244Z,11.82
2023-01-06T15:54:51.639Z,11.83
2023-01-06T15:57:18.334Z,11.70
2023-01-06T15:59:57.475Z,11.68
2023-01-06T16:02:28.751Z,11.55
2023-01-06T16:04:55.793Z,11.64
2023-01-06T16:07:41.815Z,11.55
2023-01-06T16:10:31.989Z,11.58
2023-01-06T16:13:17.898Z,11.81
2023-01-06T16:15:55.727Z,11.70
2023-01-06T16:18:34.300Z,11.62
2023-01-06T16:21:28.843Z,11.69
2023-01-06T16:24:01.453Z,11.60
2023-01-06T16:26:31.605Z,11.73
2023-01-06T16:29:01.386Z,11.66
2023-01-06T16:31:39.659Z,11.60
2023-01-06T16:34:25.128Z,11.55
2023-01-06T16:36:55.655Z,11.65
2023-01-06T16:39:22.403Z,11.63
2023-01-06T16:41:58.248Z,11.50
2023-01-06T16:44:30.052Z,11.56
2023-01-06T16:46:57.544Z,11.44
2023-01-06T16:49:24.257Z,11.43
2023-01-06T16:51:51.258Z,11.39
2023-01-06T16:54:18.709Z,11.45
2023-01-06T16:56:46.671Z,11.48
2023-01-06T16:59:15.435Z,11.35
2023-01-06T17:01:44.125Z,11.34
2023-01-06T17:04:12.806Z,11.23
2023-01-06T17:06:40.747Z,11.19
2023-01-06T17:09:25.928Z,11.16
2023-01-06T17:11:52.948Z,11.11
2023-01-06T17:14:22.378Z,11.04
2023-01-06T17:16:50.684Z,11.07
2023-01-06T17:19:28.728Z,11.04
2023-01-06T17:22:02.733Z,11.02
2023-01-06T17:24:31.273Z,10.99
2023-01-06T17:27:20.343Z,11.06
2023-01-06T17:29:47.672Z,11.00
2023-01-06T17:32:19.861Z,11.07
2023-01-06T17:34:46.785Z,10.97
2023-01-06T17:37:19.310Z,11.03
2023-01-06T17:39:47.336Z,11.02
2023-01-06T17:42:13.855Z,11.13
2023-01-06T17:44:43.427Z,11.24
2023-01-06T17:47:15.807Z,11.13
2023-01-06T17:49:48.495Z,11.11
2023-01-06T17:52:18.350Z,11.07
2023-01-06T17:55:16.057Z,11.02
2023-01-06T17:57:44.551Z,10.95
2023-01-06T18:00:34.016Z,11.04
2023-01-06T18:03:03.877Z,11.07
2023-01-06T18:05:33.415Z,11.20
2023-01-06T18:08:06.605Z,11.01
2023-01-06T18:10:39.413Z,11.01
2023-01-06T18:13:44.044Z,11.03
2023-01-06T18:16:30.676Z,11.06
2023-01-06T18:19:18.747Z,11.14
2023-01-06T18:21:46.385Z,11.21
2023-01-06T18:24:22.595Z,11.14
2023-01-06T18:26:53.722Z,11.12
2023-01-06T18:29:29.500Z,11.21
2023-01-06T18:31:56.494Z,11.13
2023-01-06T18:34:30.988Z,11.23
2023-01-06T18:36:59.617Z,11.17
2023-01-06T18:39:39.873Z,11.03
2023-01-06T18:42:51.203Z,11.18
2023-01-06T18:45:28.411Z,11.19
2023-01-06T18:48:18.306Z,11.31
2023-01-06T18:50:48.543Z,11.27
2023-01-06T18:53:15.115Z,11.24
2023-01-06T18:55:42.970Z,11.28
2023-01-06T18:58:12.650Z,11.38
2023-01-06T19:00:44.815Z,11.37
2023-01-06T19:03:14.516Z,11.27
2023-01-06T19:05:41.945Z,11.26
2023-01-06T19:08:34.715Z,11.18
2023-01-06T19:11:03.599Z,11.31
2023-01-06T19:13:30.397Z,11.27
2023-01-06T19:16:02.473Z,11.12
2023-01-06T19:18:33.588Z,11.26
2023-01-06T19:21:03.402Z,11.23
2023-01-06T19:23:32.059Z,11.25
2023-01-06T19:26:13.844Z,11.29
2023-01-06T19:28:40.434Z,11.32
2023-01-06T19:31:22.069Z,11.35
2023-01-06T19:34:00.802Z,11.26
2023-01-06T19:36:41.021Z,11.25
2023-01-06T19:39:36.951Z,11.35
2023-01-06T19:42:22.133Z,11.16
2023-01-06T19:44:53.915Z,11.34
2023-01-06T19:47:39.051Z,11.26
2023-01-06T19:50:25.454Z,11.35
2023-01-06T19:52:59.987Z,11.21
2023-01-06T19:55:31.026Z,11.17
2023-01-06T19:58:04.680Z,11.11
2023-01-06T20:01:01.068Z,11.10
2023-01-06T20:03:37.373Z,11.10
2023-01-06T20:06:04.563Z,10.98
2023-01-06T20:08:31.108Z,11.12
2023-01-06T20:10:57.683Z,11.01
2023-01-06T20:13:24.254Z,11.00
2023-01-06T20:15:50.925Z,10.98
2023-01-06T20:18:17.598Z,11.01
2023-01-06T20:20:44.328Z,11.06
2023-01-06T20:23:11.297Z,11.13
2023-01-06T20:25:37.973Z,11.23
2023-01-06T20:28:04.856Z,11.20
2023-01-06T20:30:31.446Z,11.18
2023-01-06T20:32:58.091Z,11.11
2023-01-06T20:35:24.706Z,11.19
2023-01-06T20:37:51.340Z,11.08
2023-01-06T20:40:18.415Z,11.05
2023-01-06T20:42:45.509Z,11.09
2023-01-06T20:45:12.957Z,11.23
2023-01-06T20:47:39.843Z,11.22
2023-01-06T20:50:07.449Z,11.22
2023-01-06T20:52:34.764Z,11.18
2023-01-06T20:55:01.455Z,11.11
2023-01-06T20:57:28.069Z,11.12
2023-01-06T20:59:54.626Z,11.13
2023-01-06T21:02:21.427Z,11.14
2023-01-06T21:04:48.066Z,11.22
2023-01-06T21:07:14.707Z,11.27
2023-01-06T21:09:41.257Z,11.23
2023-01-06T21:12:07.920Z,11.21
2023-01-06T21:14:35.334Z,11.22
2023-01-06T21:17:03.728Z,11.33
2023-01-06T21:19:30.570Z,11.32
2023-01-06T21:21:57.484Z,11.25
2023-01-06T21:24:25.248Z,11.19
2023-01-06T21:26:51.837Z,11.14
2023-01-06T21:29:18.373Z,11.17
2023-01-06T21:31:45.049Z,11.22
2023-01-06T21:34:11.610Z,11.26
2023-01-06T21:36:38.222Z,11.29
2023-01-06T21:39:07.630Z,11.45
2023-01-06T21:41:52.829Z,11.34
2023-01-06T21:44:20.824Z,11.41
2023-01-06T21:46:47.394Z,11.36
2023-01-06T21:49:13.951Z,11.24
2023-01-06T21:51:40.990Z,11.36
2023-01-06T21:54:07.650Z,11.34
2023-01-06T21:56:35.643Z,11.40
2023-01-06T21:59:04.817Z,11.55
2023-01-06T22:01:31.604Z,11.49
2023-01-06T22:03:58.318Z,11.51
2023-01-06T22:06:25.572Z,11.48
2023-01-06T22:08:53.834Z,11.42
2023-01-06T22:11:20.527Z,11.41
2023-01-06T22:13:47.536Z,11.39
2023-01-06T22:16:14.258Z,11.44
2023-01-06T22:18:40.931Z,11.51
2023-01-06T22:21:07.805Z,11.56
2023-01-06T22:23:36.803Z,11.45
2023-01-06T22:26:03.835Z,11.33
2023-01-06T22:28:30.526Z,11.57
2023-01-06T22:30:57.976Z,11.54
2023-01-06T22:33:24.840Z,11.60
2023-01-06T22:35:51.483Z,11.51
2023-01-06T22:38:18.075Z,11.29
2023-01-06T22:40:46.421Z,11.26
2023-01-06T22:43:12.971Z,11.27
2023-01-06T22:45:39.639Z,11.40
2023-01-06T22:48:06.414Z,11.48
2023-01-06T22:50:32.958Z,11.43
2023-01-06T22:52:59.674Z,11.48
2023-01-06T22:55:26.293Z,11.44
2023-01-06T22:57:52.940Z,11.43
2023-01-06T23:00:19.658Z,11.32
2023-01-06T23:02:46.651Z,11.34
2023-01-06T23:05:13.333Z,11.34
2023-01-06T23:07:42.566Z,11.36
2023-01-06T23:10:12.311Z,11.41
2023-01-06T23:12:40.954Z,11.18
2023-01-06T23:15:08.731Z,11.20
2023-01-06T23:17:36.882Z,11.32
2023-01-06T23:20:04.413Z,11.42
2023-01-06T23:22:31.032Z,11.41
2023-01-06T23:24:57.669Z,11.40
2023-01-06T23:27:24.250Z,11.32
2023-01-06T23:29:50.795Z,11.18
2023-01-06T23:32:17.332Z,11.35
2023-01-06T23:34:43.885Z,11.45
2023-01-06T23:37:10.503Z,11.53
2023-01-06T23:39:37.151Z,11.40
2023-01-06T23:42:05.454Z,11.42
2023-01-06T23:44:32.137Z,11.61
2023-01-06T23:46:58.748Z,11.49
2023-01-06T23:49:25.297Z,11.35
2023-01-06T23:51:52.128Z,11.47
2023-01-06T23:54:18.795Z,11.40
2023-01-06T23:56:45.373Z,11.50
2023-01-06T23:59:12.751Z,11.59
